sensor_id;sensor_type;location;lat;lon;timestamp;P1;durP1;ratioP1;P2;durP2;ratioP2
7383;SDS011;3733;47.994;8.820;2023-06-10T00:01:24;9.43;;;7.20;;
7383;SDS011;3733;47.994;8.820;2023-06-10T00:03:50;10.50;;;8.17;;
7383;SDS011;3733;47.994;8.820;2023-06-10T00:06:17;10.97;;;7.03;;
7383;SDS011;3733;47.994;8.820;2023-06-10T00:08:42;8.70;;;7.30;;
7383;SDS011;3733;47.994;8.820;2023-06-10T00:11:08;10.30;;;7.63;;
7383;SDS011;3733;47.994;8.820;2023-06-10T00:13:35;9.17;;;7.30;;
7383;SDS011;3733;47.994;8.820;2023-06-10T00:16:02;9.03;;;7.63;;
7383;SDS011;3733;47.994;8.820;2023-06-10T00:18:28;9.20;;;8.10;;
7383;SDS011;3733;47.994;8.820;2023-06-10T00:20:56;13.07;;;9.40;;
7383;SDS011;3733;47.994;8.820;2023-06-10T00:23:28;10.63;;;9.00;;
7383;SDS011;3733;47.994;8.820;2023-06-10T00:25:55;8.63;;;7.43;;
7383;SDS011;3733;47.994;8.820;2023-06-10T00:28:24;10.37;;;8.40;;
7383;SDS011;3733;47.994;8.820;2023-06-10T00:30:51;15.20;;;7.93;;
7383;SDS011;3733;47.994;8.820;2023-06-10T00:33:16;11.13;;;8.03;;
7383;SDS011;3733;47.994;8.820;2023-06-10T00:35:42;9.30;;;7.70;;
7383;SDS011;3733;47.994;8.820;2023-06-10T00:38:08;9.73;;;7.10;;
7383;SDS011;3733;47.994;8.820;2023-06-10T00:40:33;10.60;;;8.30;;
7383;SDS011;3733;47.994;8.820;2023-06-10T00:43:05;9.80;;;7.93;;
7383;SDS011;3733;47.994;8.820;2023-06-10T00:45:32;10.70;;;7.70;;
7383;SDS011;3733;47.994;8.820;2023-06-10T00:47:58;10.83;;;8.27;;
7383;SDS011;3733;47.994;8.820;2023-06-10T00:50:24;9.30;;;7.63;;
7383;SDS011;3733;47.994;8.820;2023-06-10T00:52:50;10.83;;;7.43;;
7383;SDS011;3733;47.994;8.820;2023-06-10T00:55:17;8.93;;;7.90;;
7383;SDS011;3733;47.994;8.820;2023-06-10T00:57:44;9.90;;;8.00;;
7383;SDS011;3733;47.994;8.820;2023-06-10T01:00:11;12.40;;;7.87;;
7383;SDS011;3733;47.994;8.820;2023-06-10T01:02:38;10.13;;;8.10;;
7383;SDS011;3733;47.994;8.820;2023-06-10T01:05:04;9.00;;;7.90;;
7383;SDS011;3733;47.994;8.820;2023-06-10T01:12:42;9.57;;;8.57;;
7383;SDS011;3733;47.994;8.820;2023-06-10T01:15:13;10.13;;;8.10;;
7383;SDS011;3733;47.994;8.820;2023-06-10T01:18:00;9.03;;;8.10;;
7383;SDS011;3733;47.994;8.820;2023-06-10T01:20:27;11.60;;;9.00;;
7383;SDS011;3733;47.994;8.820;2023-06-10T01:23:00;11.90;;;8.60;;
7383;SDS011;3733;47.994;8.820;2023-06-10T01:25:28;9.70;;;8.20;;
7383;SDS011;3733;47.994;8.820;2023-06-10T01:30:35;11.03;;;8.60;;
7383;SDS011;3733;47.994;8.820;2023-06-10T01:33:05;8.13;;;7.33;;
7383;SDS011;3733;47.994;8.820;2023-06-10T01:35:34;14.60;;;9.00;;
7383;SDS011;3733;47.994;8.820;2023-06-10T01:38:02;10.73;;;8.67;;
7383;SDS011;3733;47.994;8.820;2023-06-10T01:40:29;10.10;;;8.33;;
7383;SDS011;3733;47.994;8.820;2023-06-10T01:42:56;10.30;;;8.60;;
7383;SDS011;3733;47.994;8.820;2023-06-10T01:45:21;9.40;;;8.13;;
7383;SDS011;3733;47.994;8.820;2023-06-10T01:47:47;10.43;;;8.53;;
7383;SDS011;3733;47.994;8.820;2023-06-10T01:50:12;13.80;;;10.83;;
7383;SDS011;3733;47.994;8.820;2023-06-10T01:52:38;11.23;;;9.87;;
7383;SDS011;3733;47.994;8.820;2023-06-10T01:55:04;10.27;;;9.20;;
7383;SDS011;3733;47.994;8.820;2023-06-10T01:57:30;9.77;;;8.73;;
7383;SDS011;3733;47.994;8.820;2023-06-10T01:59:55;13.40;;;9.33;;
7383;SDS011;3733;47.994;8.820;2023-06-10T02:02:21;10.97;;;9.07;;
7383;SDS011;3733;47.994;8.820;2023-06-10T02:04:47;13.07;;;8.80;;
7383;SDS011;3733;47.994;8.820;2023-06-10T02:07:13;9.97;;;8.40;;
7383;SDS011;3733;47.994;8.820;2023-06-10T02:09:38;12.93;;;9.27;;
7383;SDS011;3733;47.994;8.820;2023-06-10T02:12:04;11.60;;;9.87;;
7383;SDS011;3733;47.994;8.820;2023-06-10T02:14:31;14.43;;;8.00;;
7383;SDS011;3733;47.994;8.820;2023-06-10T02:16:58;12.20;;;8.70;;
7383;SDS011;3733;47.994;8.820;2023-06-10T02:19:23;10.90;;;8.70;;
7383;SDS011;3733;47.994;8.820;2023-06-10T02:21:51;9.67;;;8.67;;
7383;SDS011;3733;47.994;8.820;2023-06-10T02:24:17;12.33;;;8.83;;
7383;SDS011;3733;47.994;8.820;2023-06-10T02:26:43;14.23;;;9.50;;
7383;SDS011;3733;47.994;8.820;2023-06-10T02:29:08;12.50;;;9.47;;
7383;SDS011;3733;47.994;8.820;2023-06-10T02:31:34;11.57;;;8.93;;
7383;SDS011;3733;47.994;8.820;2023-06-10T02:34:00;10.53;;;9.00;;
7383;SDS011;3733;47.994;8.820;2023-06-10T02:36:27;11.33;;;9.30;;
7383;SDS011;3733;47.994;8.820;2023-06-10T02:38:52;11.67;;;10.13;;
7383;SDS011;3733;47.994;8.820;2023-06-10T02:41:18;13.33;;;10.10;;
7383;SDS011;3733;47.994;8.820;2023-06-10T02:43:44;10.20;;;9.20;;
7383;SDS011;3733;47.994;8.820;2023-06-10T02:46:10;12.07;;;9.57;;
7383;SDS011;3733;47.994;8.820;2023-06-10T02:48:42;17.57;;;9.80;;
7383;SDS011;3733;47.994;8.820;2023-06-10T02:51:09;15.07;;;9.73;;
7383;SDS011;3733;47.994;8.820;2023-06-10T02:53:35;12.57;;;9.80;;
7383;SDS011;3733;47.994;8.820;2023-06-10T02:56:01;12.67;;;9.67;;
7383;SDS011;3733;47.994;8.820;2023-06-10T02:58:26;15.20;;;10.40;;
7383;SDS011;3733;47.994;8.820;2023-06-10T03:00:52;12.17;;;9.23;;
7383;SDS011;3733;47.994;8.820;2023-06-10T03:03:18;13.37;;;9.87;;
7383;SDS011;3733;47.994;8.820;2023-06-10T03:05:43;11.47;;;9.40;;
7383;SDS011;3733;47.994;8.820;2023-06-10T03:08:09;13.40;;;9.63;;
7383;SDS011;3733;47.994;8.820;2023-06-10T03:10:35;13.00;;;9.87;;
7383;SDS011;3733;47.994;8.820;2023-06-10T03:13:01;13.33;;;10.37;;
7383;SDS011;3733;47.994;8.820;2023-06-10T03:15:26;13.17;;;10.50;;
7383;SDS011;3733;47.994;8.820;2023-06-10T03:17:54;13.03;;;10.40;;
7383;SDS011;3733;47.994;8.820;2023-06-10T03:20:20;13.53;;;10.83;;
7383;SDS011;3733;47.994;8.820;2023-06-10T03:22:46;12.63;;;10.80;;
7383;SDS011;3733;47.994;8.820;2023-06-10T03:25:12;12.53;;;10.53;;
7383;SDS011;3733;47.994;8.820;2023-06-10T03:27:39;13.03;;;11.00;;
7383;SDS011;3733;47.994;8.820;2023-06-10T03:30:06;14.27;;;10.37;;
7383;SDS011;3733;47.994;8.820;2023-06-10T03:32:32;15.97;;;11.10;;
7383;SDS011;3733;47.994;8.820;2023-06-10T03:34:57;12.30;;;11.00;;
7383;SDS011;3733;47.994;8.820;2023-06-10T03:37:23;11.97;;;10.67;;
7383;SDS011;3733;47.994;8.820;2023-06-10T03:39:50;12.80;;;10.60;;
7383;SDS011;3733;47.994;8.820;2023-06-10T03:42:15;15.70;;;10.80;;
7383;SDS011;3733;47.994;8.820;2023-06-10T03:44:41;13.63;;;11.00;;
7383;SDS011;3733;47.994;8.820;2023-06-10T03:47:06;13.13;;;10.90;;
7383;SDS011;3733;47.994;8.820;2023-06-10T03:49:32;14.60;;;11.10;;
7383;SDS011;3733;47.994;8.820;2023-06-10T03:51:57;12.03;;;10.47;;
7383;SDS011;3733;47.994;8.820;2023-06-10T03:54:24;13.30;;;10.40;;
7383;SDS011;3733;47.994;8.820;2023-06-10T03:56:49;13.57;;;11.10;;
7383;SDS011;3733;47.994;8.820;2023-06-10T03:59:15;15.07;;;11.10;;
7383;SDS011;3733;47.994;8.820;2023-06-10T04:01:41;13.37;;;10.90;;
7383;SDS011;3733;47.994;8.820;2023-06-10T04:04:08;14.47;;;10.60;;
7383;SDS011;3733;47.994;8.820;2023-06-10T04:06:35;16.97;;;10.97;;
7383;SDS011;3733;47.994;8.820;2023-06-10T04:09:02;14.20;;;11.40;;
7383;SDS011;3733;47.994;8.820;2023-06-10T04:11:28;15.40;;;10.63;;
7383;SDS011;3733;47.994;8.820;2023-06-10T04:13:53;14.40;;;12.00;;
7383;SDS011;3733;47.994;8.820;2023-06-10T04:16:20;14.63;;;10.80;;
7383;SDS011;3733;47.994;8.820;2023-06-10T04:18:46;19.53;;;11.30;;
7383;SDS011;3733;47.994;8.820;2023-06-10T04:21:12;17.70;;;11.93;;
7383;SDS011;3733;47.994;8.820;2023-06-10T04:23:37;15.60;;;11.60;;
7383;SDS011;3733;47.994;8.820;2023-06-10T04:26:03;14.37;;;10.93;;
7383;SDS011;3733;47.994;8.820;2023-06-10T04:28:30;10.93;;;9.53;;
7383;SDS011;3733;47.994;8.820;2023-06-10T04:30:56;14.73;;;11.90;;
7383;SDS011;3733;47.994;8.820;2023-06-10T04:33:22;13.70;;;11.40;;
7383;SDS011;3733;47.994;8.820;2023-06-10T04:35:49;15.10;;;11.60;;
7383;SDS011;3733;47.994;8.820;2023-06-10T04:38:15;11.90;;;10.17;;
7383;SDS011;3733;47.994;8.820;2023-06-10T04:40:41;11.83;;;10.57;;
7383;SDS011;3733;47.994;8.820;2023-06-10T04:43:07;13.80;;;11.33;;
7383;SDS011;3733;47.994;8.820;2023-06-10T04:45:32;13.37;;;10.63;;
7383;SDS011;3733;47.994;8.820;2023-06-10T04:47:58;13.40;;;11.13;;
7383;SDS011;3733;47.994;8.820;2023-06-10T04:50:23;13.77;;;10.97;;
7383;SDS011;3733;47.994;8.820;2023-06-10T04:52:49;15.30;;;11.50;;
7383;SDS011;3733;47.994;8.820;2023-06-10T04:55:15;12.93;;;10.43;;
7383;SDS011;3733;47.994;8.820;2023-06-10T04:57:41;17.07;;;11.10;;
7383;SDS011;3733;47.994;8.820;2023-06-10T05:00:07;14.63;;;11.40;;
7383;SDS011;3733;47.994;8.820;2023-06-10T05:02:33;12.03;;;10.73;;
7383;SDS011;3733;47.994;8.820;2023-06-10T05:04:59;18.93;;;11.13;;
7383;SDS011;3733;47.994;8.820;2023-06-10T05:07:25;16.00;;;10.57;;
7383;SDS011;3733;47.994;8.820;2023-06-10T05:09:51;14.10;;;10.23;;
7383;SDS011;3733;47.994;8.820;2023-06-10T05:12:16;15.53;;;11.60;;
7383;SDS011;3733;47.994;8.820;2023-06-10T05:14:42;16.93;;;10.50;;
7383;SDS011;3733;47.994;8.820;2023-06-10T05:17:09;13.07;;;11.10;;
7383;SDS011;3733;47.994;8.820;2023-06-10T05:19:35;14.43;;;11.10;;
7383;SDS011;3733;47.994;8.820;2023-06-10T05:22:02;17.53;;;11.37;;
7383;SDS011;3733;47.994;8.820;2023-06-10T05:24:28;11.63;;;10.43;;
7383;SDS011;3733;47.994;8.820;2023-06-10T05:26:53;14.03;;;10.30;;
7383;SDS011;3733;47.994;8.820;2023-06-10T05:29:19;14.00;;;10.33;;
7383;SDS011;3733;47.994;8.820;2023-06-10T05:31:45;16.13;;;10.67;;
7383;SDS011;3733;47.994;8.820;2023-06-10T05:34:10;13.33;;;11.20;;
7383;SDS011;3733;47.994;8.820;2023-06-10T05:36:36;12.40;;;10.90;;
7383;SDS011;3733;47.994;8.820;2023-06-10T05:39:02;13.40;;;11.20;;
7383;SDS011;3733;47.994;8.820;2023-06-10T05:41:28;13.17;;;11.40;;
7383;SDS011;3733;47.994;8.820;2023-06-10T05:43:54;12.97;;;11.50;;
7383;SDS011;3733;47.994;8.820;2023-06-10T05:46:20;13.50;;;11.67;;
7383;SDS011;3733;47.994;8.820;2023-06-10T05:48:46;15.13;;;11.20;;
7383;SDS011;3733;47.994;8.820;2023-06-10T05:51:12;14.43;;;11.43;;
7383;SDS011;3733;47.994;8.820;2023-06-10T05:53:37;11.97;;;10.40;;
7383;SDS011;3733;47.994;8.820;2023-06-10T05:56:03;15.00;;;10.47;;
7383;SDS011;3733;47.994;8.820;2023-06-10T05:58:29;13.10;;;10.63;;
7383;SDS011;3733;47.994;8.820;2023-06-10T06:00:55;11.23;;;10.13;;
7383;SDS011;3733;47.994;8.820;2023-06-10T06:03:20;11.67;;;10.13;;
7383;SDS011;3733;47.994;8.820;2023-06-10T06:05:46;11.83;;;9.77;;
7383;SDS011;3733;47.994;8.820;2023-06-10T06:08:12;12.37;;;10.30;;
7383;SDS011;3733;47.994;8.820;2023-06-10T06:10:43;14.33;;;10.73;;
7383;SDS011;3733;47.994;8.820;2023-06-10T06:13:12;12.40;;;10.70;;
7383;SDS011;3733;47.994;8.820;2023-06-10T06:15:38;11.30;;;10.20;;
7383;SDS011;3733;47.994;8.820;2023-06-10T06:18:04;12.67;;;10.40;;
7383;SDS011;3733;47.994;8.820;2023-06-10T06:20:30;12.40;;;10.03;;
7383;SDS011;3733;47.994;8.820;2023-06-10T06:22:55;12.23;;;9.70;;
7383;SDS011;3733;47.994;8.820;2023-06-10T06:25:21;10.80;;;9.27;;
7383;SDS011;3733;47.994;8.820;2023-06-10T06:27:46;11.97;;;10.10;;
7383;SDS011;3733;47.994;8.820;2023-06-10T06:30:12;9.93;;;8.90;;
7383;SDS011;3733;47.994;8.820;2023-06-10T06:32:38;11.80;;;10.00;;
7383;SDS011;3733;47.994;8.820;2023-06-10T06:35:04;10.97;;;9.60;;
7383;SDS011;3733;47.994;8.820;2023-06-10T06:37:32;14.37;;;9.97;;
7383;SDS011;3733;47.994;8.820;2023-06-10T06:39:58;12.37;;;9.83;;
7383;SDS011;3733;47.994;8.820;2023-06-10T06:42:24;10.93;;;9.77;;
7383;SDS011;3733;47.994;8.820;2023-06-10T06:44:50;14.00;;;9.80;;
7383;SDS011;3733;47.994;8.820;2023-06-10T06:47:15;12.30;;;9.00;;
7383;SDS011;3733;47.994;8.820;2023-06-10T06:49:44;10.47;;;9.37;;
7383;SDS011;3733;47.994;8.820;2023-06-10T06:52:11;14.13;;;8.80;;
7383;SDS011;3733;47.994;8.820;2023-06-10T06:54:36;10.53;;;8.60;;
7383;SDS011;3733;47.994;8.820;2023-06-10T06:57:02;13.53;;;9.60;;
7383;SDS011;3733;47.994;8.820;2023-06-10T06:59:28;14.30;;;8.53;;
7383;SDS011;3733;47.994;8.820;2023-06-10T07:01:53;11.00;;;8.53;;
7383;SDS011;3733;47.994;8.820;2023-06-10T07:04:19;10.13;;;8.70;;
7383;SDS011;3733;47.994;8.820;2023-06-10T07:06:47;11.33;;;8.00;;
7383;SDS011;3733;47.994;8.820;2023-06-10T07:09:13;11.47;;;9.03;;
7383;SDS011;3733;47.994;8.820;2023-06-10T07:11:38;9.57;;;8.47;;
7383;SDS011;3733;47.994;8.820;2023-06-10T07:14:04;11.00;;;8.93;;
7383;SDS011;3733;47.994;8.820;2023-06-10T07:16:30;9.23;;;8.20;;
7383;SDS011;3733;47.994;8.820;2023-06-10T07:18:55;9.13;;;8.00;;
7383;SDS011;3733;47.994;8.820;2023-06-10T07:21:21;12.30;;;9.00;;
7383;SDS011;3733;47.994;8.820;2023-06-10T07:23:48;9.80;;;8.30;;
7383;SDS011;3733;47.994;8.820;2023-06-10T07:26:14;13.00;;;7.97;;
7383;SDS011;3733;47.994;8.820;2023-06-10T07:28:43;12.20;;;8.30;;
7383;SDS011;3733;47.994;8.820;2023-06-10T07:31:08;10.53;;;7.90;;
7383;SDS011;3733;47.994;8.820;2023-06-10T07:33:34;9.80;;;8.27;;
7383;SDS011;3733;47.994;8.820;2023-06-10T07:36:01;18.57;;;8.17;;
7383;SDS011;3733;47.994;8.820;2023-06-10T07:38:27;10.53;;;7.80;;
7383;SDS011;3733;47.994;8.820;2023-06-10T07:40:53;10.43;;;7.90;;
7383;SDS011;3733;47.994;8.820;2023-06-10T07:43:18;8.50;;;7.50;;
7383;SDS011;3733;47.994;8.820;2023-06-10T07:45:44;11.23;;;7.80;;
7383;SDS011;3733;47.994;8.820;2023-06-10T07:48:10;8.73;;;7.87;;
7383;SDS011;3733;47.994;8.820;2023-06-10T07:50:35;8.60;;;7.80;;
7383;SDS011;3733;47.994;8.820;2023-06-10T07:53:01;8.27;;;7.40;;
7383;SDS011;3733;47.994;8.820;2023-06-10T07:55:27;10.60;;;7.90;;
7383;SDS011;3733;47.994;8.820;2023-06-10T07:57:53;10.77;;;7.97;;
7383;SDS011;3733;47.994;8.820;2023-06-10T08:00:19;9.00;;;7.43;;
7383;SDS011;3733;47.994;8.820;2023-06-10T08:02:45;11.57;;;7.70;;
7383;SDS011;3733;47.994;8.820;2023-06-10T08:05:11;7.97;;;7.17;;
7383;SDS011;3733;47.994;8.820;2023-06-10T08:07:36;9.77;;;7.40;;
7383;SDS011;3733;47.994;8.820;2023-06-10T08:10:02;12.13;;;7.63;;
7383;SDS011;3733;47.994;8.820;2023-06-10T08:12:29;8.07;;;6.93;;
7383;SDS011;3733;47.994;8.820;2023-06-10T08:14:54;9.80;;;7.30;;
7383;SDS011;3733;47.994;8.820;2023-06-10T08:17:20;8.50;;;7.20;;
7383;SDS011;3733;47.994;8.820;2023-06-10T08:19:46;13.40;;;7.20;;
7383;SDS011;3733;47.994;8.820;2023-06-10T08:22:12;13.20;;;6.87;;
7383;SDS011;3733;47.994;8.820;2023-06-10T08:24:37;10.00;;;7.40;;
7383;SDS011;3733;47.994;8.820;2023-06-10T08:27:03;9.60;;;6.77;;
7383;SDS011;3733;47.994;8.820;2023-06-10T08:29:30;8.07;;;7.00;;
7383;SDS011;3733;47.994;8.820;2023-06-10T08:31:57;7.93;;;7.00;;
7383;SDS011;3733;47.994;8.820;2023-06-10T08:34:22;9.27;;;7.50;;
7383;SDS011;3733;47.994;8.820;2023-06-10T08:36:48;10.43;;;7.73;;
7383;SDS011;3733;47.994;8.820;2023-06-10T08:39:18;8.70;;;6.40;;
7383;SDS011;3733;47.994;8.820;2023-06-10T08:41:46;8.57;;;6.60;;
7383;SDS011;3733;47.994;8.820;2023-06-10T08:44:29;9.00;;;7.40;;
7383;SDS011;3733;47.994;8.820;2023-06-10T08:46:56;7.53;;;6.70;;
7383;SDS011;3733;47.994;8.820;2023-06-10T08:49:25;8.13;;;6.10;;
7383;SDS011;3733;47.994;8.820;2023-06-10T08:51:59;8.30;;;7.03;;
7383;SDS011;3733;47.994;8.820;2023-06-10T08:54:28;8.70;;;7.03;;
7383;SDS011;3733;47.994;8.820;2023-06-10T08:56:57;7.37;;;6.13;;
7383;SDS011;3733;47.994;8.820;2023-06-10T08:59:24;8.33;;;6.67;;
7383;SDS011;3733;47.994;8.820;2023-06-10T09:01:50;6.97;;;6.27;;
7383;SDS011;3733;47.994;8.820;2023-06-10T09:04:18;9.87;;;7.00;;
7383;SDS011;3733;47.994;8.820;2023-06-10T09:06:45;8.23;;;7.17;;
7383;SDS011;3733;47.994;8.820;2023-06-10T09:09:14;9.57;;;7.00;;
7383;SDS011;3733;47.994;8.820;2023-06-10T09:11:41;9.03;;;6.53;;
7383;SDS011;3733;47.994;8.820;2023-06-10T09:14:07;8.47;;;7.30;;
7383;SDS011;3733;47.994;8.820;2023-06-10T09:16:34;8.77;;;6.33;;
7383;SDS011;3733;47.994;8.820;2023-06-10T09:19:00;7.70;;;6.90;;
7383;SDS011;3733;47.994;8.820;2023-06-10T09:21:32;8.37;;;6.90;;
7383;SDS011;3733;47.994;8.820;2023-06-10T09:23:58;9.37;;;6.87;;
7383;SDS011;3733;47.994;8.820;2023-06-10T09:26:27;9.30;;;7.90;;
7383;SDS011;3733;47.994;8.820;2023-06-10T09:28:57;9.50;;;6.77;;
7383;SDS011;3733;47.994;8.820;2023-06-10T09:31:30;7.47;;;6.70;;
7383;SDS011;3733;47.994;8.820;2023-06-10T09:34:08;7.47;;;6.77;;
7383;SDS011;3733;47.994;8.820;2023-06-10T09:36:38;7.63;;;6.90;;
7383;SDS011;3733;47.994;8.820;2023-06-10T09:39:04;7.63;;;6.70;;
7383;SDS011;3733;47.994;8.820;2023-06-10T09:41:40;7.17;;;6.40;;
7383;SDS011;3733;47.994;8.820;2023-06-10T09:44:19;7.90;;;6.83;;
7383;SDS011;3733;47.994;8.820;2023-06-10T09:46:47;8.47;;;7.20;;
7383;SDS011;3733;47.994;8.820;2023-06-10T09:49:16;7.83;;;7.03;;
7383;SDS011;3733;47.994;8.820;2023-06-10T09:51:51;8.57;;;6.67;;
7383;SDS011;3733;47.994;8.820;2023-06-10T09:54:18;7.40;;;6.60;;
7383;SDS011;3733;47.994;8.820;2023-06-10T09:56:46;8.10;;;7.20;;
7383;SDS011;3733;47.994;8.820;2023-06-10T09:59:13;7.53;;;6.73;;
7383;SDS011;3733;47.994;8.820;2023-06-10T10:01:38;13.67;;;6.90;;
7383;SDS011;3733;47.994;8.820;2023-06-10T10:04:04;7.00;;;6.40;;
7383;SDS011;3733;47.994;8.820;2023-06-10T10:06:30;9.30;;;7.23;;
7383;SDS011;3733;47.994;8.820;2023-06-10T10:08:56;9.27;;;7.33;;
7383;SDS011;3733;47.994;8.820;2023-06-10T10:11:21;7.13;;;6.43;;
7383;SDS011;3733;47.994;8.820;2023-06-10T10:13:49;7.60;;;6.60;;
7383;SDS011;3733;47.994;8.820;2023-06-10T10:16:20;8.27;;;6.63;;
7383;SDS011;3733;47.994;8.820;2023-06-10T10:18:52;7.20;;;6.50;;
7383;SDS011;3733;47.994;8.820;2023-06-10T10:21:24;15.67;;;7.53;;
7383;SDS011;3733;47.994;8.820;2023-06-10T10:26:27;7.70;;;6.70;;
7383;SDS011;3733;47.994;8.820;2023-06-10T10:29:20;8.77;;;6.80;;
7383;SDS011;3733;47.994;8.820;2023-06-10T10:32:02;8.27;;;7.03;;
7383;SDS011;3733;47.994;8.820;2023-06-10T10:34:34;8.47;;;7.57;;
7383;SDS011;3733;47.994;8.820;2023-06-10T10:37:04;7.70;;;6.90;;
7383;SDS011;3733;47.994;8.820;2023-06-10T10:39:30;9.43;;;7.37;;
7383;SDS011;3733;47.994;8.820;2023-06-10T10:41:57;7.47;;;6.43;;
7383;SDS011;3733;47.994;8.820;2023-06-10T10:44:23;7.33;;;6.67;;
7383;SDS011;3733;47.994;8.820;2023-06-10T10:46:50;10.00;;;5.93;;
7383;SDS011;3733;47.994;8.820;2023-06-10T10:49:17;8.43;;;6.57;;
7383;SDS011;3733;47.994;8.820;2023-06-10T10:51:55;6.73;;;6.03;;
7383;SDS011;3733;47.994;8.820;2023-06-10T10:54:32;6.60;;;5.90;;
7383;SDS011;3733;47.994;8.820;2023-06-10T10:57:09;9.27;;;6.10;;
7383;SDS011;3733;47.994;8.820;2023-06-10T10:59:46;7.57;;;5.90;;
7383;SDS011;3733;47.994;8.820;2023-06-10T11:02:43;7.53;;;6.50;;
7383;SDS011;3733;47.994;8.820;2023-06-10T11:05:11;7.17;;;6.47;;
7383;SDS011;3733;47.994;8.820;2023-06-10T11:07:39;7.10;;;6.40;;
7383;SDS011;3733;47.994;8.820;2023-06-10T11:10:06;7.17;;;6.47;;
7383;SDS011;3733;47.994;8.820;2023-06-10T11:15:11;8.43;;;6.40;;
7383;SDS011;3733;47.994;8.820;2023-06-10T11:18:06;6.60;;;6.00;;
7383;SDS011;3733;47.994;8.820;2023-06-10T11:31:32;6.60;;;5.90;;
7383;SDS011;3733;47.994;8.820;2023-06-10T11:34:08;6.93;;;5.60;;
7383;SDS011;3733;47.994;8.820;2023-06-10T11:36:38;6.40;;;5.00;;
7383;SDS011;3733;47.994;8.820;2023-06-10T11:39:05;6.33;;;5.20;;
7383;SDS011;3733;47.994;8.820;2023-06-10T11:41:32;5.53;;;4.97;;
7383;SDS011;3733;47.994;8.820;2023-06-10T11:44:02;6.40;;;4.90;;
7383;SDS011;3733;47.994;8.820;2023-06-10T11:46:38;5.30;;;4.80;;
7383;SDS011;3733;47.994;8.820;2023-06-10T11:49:04;5.47;;;4.97;;
7383;SDS011;3733;47.994;8.820;2023-06-10T11:51:34;6.70;;;5.43;;
7383;SDS011;3733;47.994;8.820;2023-06-10T11:54:01;4.87;;;4.43;;
7383;SDS011;3733;47.994;8.820;2023-06-10T11:56:28;5.37;;;4.67;;
7383;SDS011;3733;47.994;8.820;2023-06-10T12:01:21;8.10;;;6.07;;
7383;SDS011;3733;47.994;8.820;2023-06-10T12:03:48;4.87;;;4.40;;
7383;SDS011;3733;47.994;8.820;2023-06-10T12:06:22;4.60;;;4.20;;
7383;SDS011;3733;47.994;8.820;2023-06-10T12:08:47;5.67;;;4.60;;
7383;SDS011;3733;47.994;8.820;2023-06-10T12:11:13;31.67;;;6.40;;
7383;SDS011;3733;47.994;8.820;2023-06-10T12:13:38;9.60;;;3.77;;
7383;SDS011;3733;47.994;8.820;2023-06-10T12:16:13;4.80;;;3.97;;
7383;SDS011;3733;47.994;8.820;2023-06-10T12:18:39;3.80;;;3.50;;
7383;SDS011;3733;47.994;8.820;2023-06-10T12:21:15;4.70;;;3.87;;
7383;SDS011;3733;47.994;8.820;2023-06-10T12:24:04;5.00;;;3.53;;
7383;SDS011;3733;47.994;8.820;2023-06-10T12:36:58;4.00;;;3.10;;
7383;SDS011;3733;47.994;8.820;2023-06-10T12:39:24;30.75;;;7.47;;
7383;SDS011;3733;47.994;8.820;2023-06-10T12:41:53;17.48;;;4.57;;
7383;SDS011;3733;47.994;8.820;2023-06-10T12:44:28;5.55;;;3.78;;
7383;SDS011;3733;47.994;8.820;2023-06-10T12:47:06;3.90;;;3.30;;
7383;SDS011;3733;47.994;8.820;2023-06-10T12:49:33;14.32;;;3.80;;
7383;SDS011;3733;47.994;8.820;2023-06-10T12:52:00;3.03;;;2.83;;
7383;SDS011;3733;47.994;8.820;2023-06-10T12:54:26;3.55;;;2.80;;
7383;SDS011;3733;47.994;8.820;2023-06-10T12:56:51;3.95;;;2.72;;
7383;SDS011;3733;47.994;8.820;2023-06-10T12:59:18;3.22;;;2.97;;
7383;SDS011;3733;47.994;8.820;2023-06-10T13:01:44;2.70;;;2.50;;
7383;SDS011;3733;47.994;8.820;2023-06-10T13:04:16;4.28;;;2.80;;
7383;SDS011;3733;47.994;8.820;2023-06-10T13:06:42;3.47;;;3.17;;
7383;SDS011;3733;47.994;8.820;2023-06-10T13:09:07;6.40;;;3.28;;
7383;SDS011;3733;47.994;8.820;2023-06-10T13:11:33;3.40;;;3.10;;
7383;SDS011;3733;47.994;8.820;2023-06-10T13:14:00;3.60;;;3.30;;
7383;SDS011;3733;47.994;8.820;2023-06-10T13:16:27;3.15;;;2.67;;
7383;SDS011;3733;47.994;8.820;2023-06-10T13:18:53;3.15;;;2.90;;
7383;SDS011;3733;47.994;8.820;2023-06-10T13:21:19;6.60;;;2.65;;
7383;SDS011;3733;47.994;8.820;2023-06-10T13:23:45;3.10;;;2.80;;
7383;SDS011;3733;47.994;8.820;2023-06-10T13:26:13;3.28;;;2.97;;
7383;SDS011;3733;47.994;8.820;2023-06-10T13:28:39;3.47;;;3.17;;
7383;SDS011;3733;47.994;8.820;2023-06-10T13:31:05;3.47;;;3.17;;
7383;SDS011;3733;47.994;8.820;2023-06-10T13:33:31;3.97;;;3.40;;
7383;SDS011;3733;47.994;8.820;2023-06-10T13:35:56;3.47;;;3.17;;
7383;SDS011;3733;47.994;8.820;2023-06-10T13:38:22;3.33;;;3.13;;
7383;SDS011;3733;47.994;8.820;2023-06-10T13:40:47;4.10;;;3.22;;
7383;SDS011;3733;47.994;8.820;2023-06-10T13:43:13;3.83;;;3.08;;
7383;SDS011;3733;47.994;8.820;2023-06-10T13:45:39;3.75;;;2.55;;
7383;SDS011;3733;47.994;8.820;2023-06-10T13:48:05;3.90;;;3.60;;
7383;SDS011;3733;47.994;8.820;2023-06-10T13:50:31;3.40;;;3.10;;
7383;SDS011;3733;47.994;8.820;2023-06-10T13:52:57;3.28;;;2.80;;
7383;SDS011;3733;47.994;8.820;2023-06-10T13:55:22;3.25;;;3.03;;
7383;SDS011;3733;47.994;8.820;2023-06-10T13:57:49;3.05;;;2.85;;
7383;SDS011;3733;47.994;8.820;2023-06-10T14:00:15;3.15;;;2.92;;
7383;SDS011;3733;47.994;8.820;2023-06-10T14:02:41;8.80;;;2.90;;
7383;SDS011;3733;47.994;8.820;2023-06-10T14:05:07;3.33;;;3.03;;
7383;SDS011;3733;47.994;8.820;2023-06-10T14:07:33;2.67;;;2.25;;
7383;SDS011;3733;47.994;8.820;2023-06-10T14:09:59;4.93;;;3.10;;
7383;SDS011;3733;47.994;8.820;2023-06-10T14:12:25;2.65;;;2.45;;
7383;SDS011;3733;47.994;8.820;2023-06-10T14:14:50;3.55;;;3.25;;
7383;SDS011;3733;47.994;8.820;2023-06-10T14:17:16;4.63;;;3.25;;
7383;SDS011;3733;47.994;8.820;2023-06-10T14:19:42;3.90;;;3.50;;
7383;SDS011;3733;47.994;8.820;2023-06-10T14:22:07;4.45;;;3.03;;
7383;SDS011;3733;47.994;8.820;2023-06-10T14:24:33;3.22;;;2.92;;
7383;SDS011;3733;47.994;8.820;2023-06-10T14:27:00;4.20;;;2.85;;
7383;SDS011;3733;47.994;8.820;2023-06-10T14:29:25;2.88;;;2.58;;
7383;SDS011;3733;47.994;8.820;2023-06-10T14:31:54;2.90;;;2.70;;
7383;SDS011;3733;47.994;8.820;2023-06-10T14:34:20;2.80;;;2.55;;
7383;SDS011;3733;47.994;8.820;2023-06-10T14:36:48;6.25;;;2.70;;
7383;SDS011;3733;47.994;8.820;2023-06-10T14:39:14;3.55;;;3.05;;
7383;SDS011;3733;47.994;8.820;2023-06-10T14:41:39;2.78;;;2.58;;
7383;SDS011;3733;47.994;8.820;2023-06-10T14:44:05;3.17;;;2.90;;
7383;SDS011;3733;47.994;8.820;2023-06-10T14:46:30;2.83;;;2.63;;
7383;SDS011;3733;47.994;8.820;2023-06-10T14:48:56;3.05;;;2.83;;
7383;SDS011;3733;47.994;8.820;2023-06-10T14:51:25;3.45;;;3.10;;
7383;SDS011;3733;47.994;8.820;2023-06-10T14:53:50;3.20;;;2.92;;
7383;SDS011;3733;47.994;8.820;2023-06-10T14:56:16;10.60;;;2.83;;
7383;SDS011;3733;47.994;8.820;2023-06-10T14:58:42;5.03;;;2.70;;
7383;SDS011;3733;47.994;8.820;2023-06-10T15:01:07;3.22;;;2.70;;
7383;SDS011;3733;47.994;8.820;2023-06-10T15:03:33;3.30;;;3.00;;
7383;SDS011;3733;47.994;8.820;2023-06-10T15:05:59;5.50;;;2.72;;
7383;SDS011;3733;47.994;8.820;2023-06-10T15:08:25;4.05;;;2.88;;
7383;SDS011;3733;47.994;8.820;2023-06-10T15:10:53;3.10;;;2.75;;
7383;SDS011;3733;47.994;8.820;2023-06-10T15:13:19;3.50;;;3.20;;
7383;SDS011;3733;47.994;8.820;2023-06-10T15:15:45;3.25;;;2.95;;
7383;SDS011;3733;47.994;8.820;2023-06-10T15:18:10;3.83;;;2.90;;
7383;SDS011;3733;47.994;8.820;2023-06-10T15:20:36;5.22;;;2.65;;
7383;SDS011;3733;47.994;8.820;2023-06-10T15:23:01;3.00;;;2.80;;
7383;SDS011;3733;47.994;8.820;2023-06-10T15:25:27;2.83;;;2.55;;
7383;SDS011;3733;47.994;8.820;2023-06-10T15:27:52;5.30;;;2.60;;
7383;SDS011;3733;47.994;8.820;2023-06-10T15:30:18;2.97;;;2.78;;
7383;SDS011;3733;47.994;8.820;2023-06-10T15:32:44;2.80;;;2.60;;
7383;SDS011;3733;47.994;8.820;2023-06-10T15:35:09;3.20;;;2.90;;
7383;SDS011;3733;47.994;8.820;2023-06-10T15:37:35;2.90;;;2.70;;
7383;SDS011;3733;47.994;8.820;2023-06-10T15:40:01;3.47;;;2.92;;
7383;SDS011;3733;47.994;8.820;2023-06-10T15:42:27;2.70;;;2.50;;